CPW8 weather

Powell River (Hospital) Heliport
Powell River, British Columbia, Canada

Public forecast

Using degrees Celsius for public forecast. Weather courtesy of forecast.io.

METAR (pilot weather report)

Report is more than 6 hours old.

Closest report is Powell River Airport, 1.4 nm (2.6 km) SE. Retrieved 2019/07/22 02:00 UTC (7 hours ago):

CYPW 220200Z 00000KT 25SM FEW110 SCT220 BKN250 25/14 A2995 RMK AC2CC2CI2 LAST STFD OBS NEXT OBS 221300UTC SLP142 DENSITY ALT 1700FT

TAF (pilot weather forecast)

Closest forecast is Comox Airport, 16.5 nm (30.5 km) WSW. Retrieved 2019/07/22 06:42 UTC (2 hours ago):

TAF CYQQ 220539Z 2206/2306 VRB03KT P6SM FEW120 SCT250 BECMG 2217/2219 14015KT FM230000 18008KT P6SM FEW050 RMK NXT FCST BY 221200Z